Terminal Aerodrome Forecast
Issued by NWS Bismarck, ND

Current Version | Previous Version | Text Only | Print | Product List | Glossary On
Versions: 1 2 3 4 5 6 7 8 9 10 11 12 13 14 15 16 17 18 19 20 21 22 23 24 25
207
FTUS43 KBIS 231731
TAFBIS
TAF
KBIS 231731Z 2318/2418 00000KT P6SM OVC015
     FM232300 07004KT P6SM -SN OVC010
     FM240200 05004KT P6SM -SN OVC008
     FM240400 04005KT 4SM -SN BR OVC008
     FM240900 02009KT 3SM -SN BR OVC008
     FM241200 01009KT 5SM -SN BR OVC008
     FM241700 35014G20KT P6SM OVC010=

USA.gov is the U.S. government's official web portal to all federal, state and local government web resources and services.